Time;durP1;ratioP1;P1;durP2;ratioP2;P2;SDS_P1;SDS_P2;PMS_P1;PMS_P2;Temp;Humidity;BMP_temperature;BMP_pressure;BME280_temperature;BME280_humidity;BME280_pressure;Samples;Min_cycle;Max_cycle;Signal;HPM_P1;HPM_P2
2023/07/10 00:00:23;;;;;;;15.20;14.40;;;24.40;98.30;;;;;;5033679;28;20444;-73
2023/07/10 00:02:50;;;;;;;13.93;13.23;;;24.40;98.40;;;;;;5031570;28;20448;-74
2023/07/10 00:05:19;;;;;;;15.00;14.07;;;24.40;98.60;;;;;;5033319;28;20449;-74
2023/07/10 00:07:47;;;;;;;16.10;14.33;;;24.40;98.70;;;;;;5033205;28;20564;-73
2023/07/10 00:10:17;;;;;;;14.13;13.43;;;24.40;98.90;;;;;;5033246;28;20460;-74
2023/07/10 00:12:46;;;;;;;15.23;13.93;;;24.40;99.10;;;;;;5033209;28;20489;-74
2023/07/10 00:15:19;;;;;;;14.57;13.57;;;24.30;99.20;;;;;;5033296;28;20831;-75
2023/07/10 00:17:47;;;;;;;14.93;14.03;;;24.30;99.30;;;;;;5033134;28;20488;-74
2023/07/10 00:20:14;;;;;;;13.07;12.33;;;24.30;99.70;;;;;;5032911;28;20957;-75
2023/07/10 00:22:41;;;;;;;14.50;13.70;;;24.30;99.90;;;;;;5033102;28;20636;-75
2023/07/10 00:25:10;;;;;;;14.77;13.33;;;24.30;99.90;;;;;;5032579;28;20942;-75
2023/07/10 00:27:37;;;;;;;18.30;17.00;;;24.40;99.90;;;;;;5032393;28;20962;-74
2023/07/10 00:30:13;;;;;;;16.50;15.20;;;24.40;99.90;;;;;;5033084;28;20453;-73
2023/07/10 00:32:40;;;;;;;16.83;15.67;;;24.30;99.90;;;;;;5032836;28;20484;-73
2023/07/10 00:35:07;;;;;;;15.00;13.93;;;24.40;99.90;;;;;;5032703;28;20476;-73
2023/07/10 00:37:34;;;;;;;16.17;14.77;;;24.40;99.90;;;;;;5033168;28;20457;-73
2023/07/10 00:40:01;;;;;;;15.17;14.27;;;24.50;99.90;;;;;;5033993;28;20792;-73
2023/07/10 00:42:29;;;;;;;14.77;13.97;;;24.30;99.80;;;;;;5042269;28;20979;-73
2023/07/10 00:44:59;;;;;;;16.30;15.10;;;24.20;99.90;;;;;;5045789;28;20453;-73
2023/07/10 00:47:32;;;;;;;15.27;14.37;;;24.30;99.80;;;;;;5032629;28;20716;-73
2023/07/10 00:50:03;;;;;;;15.80;14.90;;;24.20;99.60;;;;;;5045710;28;20943;-73
2023/07/10 00:52:35;;;;;;;14.60;13.70;;;24.10;99.70;;;;;;5052357;28;20483;-73
2023/07/10 00:55:13;;;;;;;14.60;13.80;;;24.00;99.90;;;;;;5052407;28;20834;-73
2023/07/10 00:57:43;;;;;;;14.23;13.30;;;24.00;99.90;;;;;;5047180;28;20479;-73
2023/07/10 01:00:18;;;;;;;13.33;12.73;;;24.00;99.90;;;;;;5032214;28;20453;-73
2023/07/10 01:02:46;;;;;;;13.47;12.77;;;24.00;99.90;;;;;;5032333;28;20451;-73
2023/07/10 01:05:13;;;;;;;15.90;15.00;;;24.00;99.90;;;;;;5032245;28;20441;-73
2023/07/10 01:07:44;;;;;;;15.60;14.70;;;23.90;99.90;;;;;;5031960;28;20846;-73
2023/07/10 01:10:11;;;;;;;14.80;13.53;;;23.90;99.90;;;;;;5032085;28;20456;-74
2023/07/10 01:12:43;;;;;;;15.07;14.17;;;23.90;99.90;;;;;;5031995;28;20504;-74
2023/07/10 01:15:10;;;;;;;15.67;14.47;;;23.90;99.90;;;;;;5032307;28;20453;-74
2023/07/10 01:17:37;;;;;;;14.40;13.50;;;23.80;99.90;;;;;;5032133;28;20841;-74
2023/07/10 01:20:22;;;;;;;16.13;15.17;;;23.90;99.90;;;;;;5032192;28;20818;-74
2023/07/10 01:22:50;;;;;;;14.30;13.50;;;23.80;99.90;;;;;;5032105;28;20449;-74
2023/07/10 01:25:17;;;;;;;15.20;14.07;;;23.80;99.90;;;;;;5031983;28;20456;-75
2023/07/10 01:27:43;;;;;;;15.30;14.43;;;23.80;99.90;;;;;;5031928;28;20456;-74
2023/07/10 01:30:22;;;;;;;14.17;13.30;;;23.90;99.90;;;;;;5031829;28;20453;-74
2023/07/10 01:32:49;;;;;;;14.97;14.07;;;24.00;99.90;;;;;;5037177;28;20483;-74
2023/07/10 01:35:17;;;;;;;15.50;14.57;;;23.90;99.90;;;;;;5031601;28;20481;-73
2023/07/10 01:37:44;;;;;;;14.73;13.80;;;23.80;99.90;;;;;;5049242;28;20484;-76
2023/07/10 01:40:17;;;;;;;15.07;14.17;;;23.80;99.90;;;;;;5047053;28;20459;-75
2023/07/10 01:42:44;;;;;;;15.90;14.70;;;23.60;99.90;;;;;;5035126;28;20444;-74
2023/07/10 01:45:14;;;;;;;14.27;13.57;;;23.60;99.90;;;;;;5037376;28;20449;-74
2023/07/10 01:47:41;;;;;;;16.43;15.10;;;23.50;99.90;;;;;;5042668;28;20747;-75
2023/07/10 01:50:09;;;;;;;17.17;15.90;;;23.60;99.90;;;;;;5035297;28;20838;-75
2023/07/10 01:52:36;;;;;;;15.37;14.33;;;23.50;99.90;;;;;;5040818;28;21017;-74
2023/07/10 01:55:03;;;;;;;15.20;14.40;;;23.50;99.90;;;;;;5031487;28;20511;-74
2023/07/10 01:57:31;;;;;;;15.17;14.17;;;23.50;99.90;;;;;;5039509;28;20835;-73
2023/07/10 01:59:58;;;;;;;14.60;13.60;;;23.40;99.90;;;;;;5040332;28;20463;-72
2023/07/10 02:02:24;;;;;;;15.77;14.53;;;23.40;99.90;;;;;;5035363;28;20457;-73
2023/07/10 02:04:52;;;;;;;15.03;13.73;;;23.40;99.90;;;;;;5036031;28;20452;-74
2023/07/10 02:07:19;;;;;;;14.90;14.10;;;23.30;99.90;;;;;;5044609;28;20537;-73
2023/07/10 02:09:46;;;;;;;14.03;13.30;;;23.50;99.90;;;;;;5032410;28;20460;-73
2023/07/10 02:12:12;;;;;;;14.93;14.23;;;23.40;99.90;;;;;;5030986;28;20977;-74
2023/07/10 02:14:41;;;;;;;15.03;13.77;;;23.40;99.90;;;;;;5030873;28;20795;-73
2023/07/10 02:17:07;;;;;;;16.40;15.30;;;23.50;99.90;;;;;;5030883;28;20970;-74
2023/07/10 02:19:34;;;;;;;16.00;15.27;;;23.40;99.90;;;;;;5030973;28;20994;-76
2023/07/10 02:22:01;;;;;;;16.77;15.87;;;23.60;99.90;;;;;;5041382;28;20456;-76
2023/07/10 02:24:27;;;;;;;15.33;14.53;;;23.70;99.90;;;;;;5046481;28;20459;-75
2023/07/10 02:26:54;;;;;;;14.97;14.13;;;23.40;99.90;;;;;;5041141;28;20933;-73
2023/07/10 02:29:21;;;;;;;14.43;13.73;;;23.50;99.90;;;;;;5030729;28;20467;-71
2023/07/10 02:31:52;;;;;;;16.77;15.67;;;23.30;99.90;;;;;;5030823;28;20453;-74
2023/07/10 02:34:19;;;;;;;15.87;14.87;;;23.30;99.90;;;;;;5030626;28;21014;-73
2023/07/10 02:36:45;;;;;;;16.47;15.33;;;23.30;99.90;;;;;;5030572;28;20842;-73
2023/07/10 02:39:12;;;;;;;15.93;14.77;;;23.30;99.90;;;;;;5030659;28;20476;-73
2023/07/10 02:41:39;;;;;;;15.80;14.80;;;23.30;99.90;;;;;;5030624;28;20453;-74
2023/07/10 02:44:05;;;;;;;15.47;14.47;;;23.30;99.90;;;;;;5033689;28;20475;-73
2023/07/10 02:46:32;;;;;;;13.87;13.00;;;23.30;99.90;;;;;;5039221;28;20935;-73
2023/07/10 02:49:00;;;;;;;15.70;14.77;;;23.40;99.90;;;;;;5031066;28;20453;-73
2023/07/10 02:51:27;;;;;;;16.50;15.40;;;23.50;99.90;;;;;;5041439;28;20478;-73
2023/07/10 02:53:53;;;;;;;16.40;15.30;;;23.40;99.90;;;;;;5047707;28;20486;-73
2023/07/10 02:56:21;;;;;;;18.10;16.70;;;23.40;99.90;;;;;;5042308;28;20456;-74
2023/07/10 02:58:50;;;;;;;16.07;15.07;;;23.50;99.90;;;;;;5043488;28;20556;-74
2023/07/10 03:01:17;;;;;;;15.93;14.70;;;23.50;99.90;;;;;;5034776;28;20452;-74
2023/07/10 03:03:45;;;;;;;16.67;15.60;;;23.60;99.90;;;;;;5034658;28;20460;-74
2023/07/10 03:06:13;;;;;;;16.93;15.83;;;23.50;99.90;;;;;;5043232;28;20522;-73
2023/07/10 03:08:41;;;;;;;17.57;16.50;;;23.50;99.90;;;;;;5040617;28;20481;-72
2023/07/10 03:11:11;;;;;;;16.17;15.30;;;23.40;99.90;;;;;;5046028;28;20453;-73
2023/07/10 03:13:37;;;;;;;16.87;15.87;;;23.30;99.90;;;;;;5049714;28;20492;-73
2023/07/10 03:16:06;;;;;;;17.50;16.20;;;23.20;99.90;;;;;;5043925;28;20813;-74
2023/07/10 03:18:33;;;;;;;16.80;15.83;;;23.20;99.90;;;;;;5048730;28;20820;-73
2023/07/10 03:21:00;;;;;;;15.67;14.77;;;23.20;99.90;;;;;;5052646;28;20459;-74
2023/07/10 03:23:28;;;;;;;17.23;16.33;;;23.20;99.90;;;;;;5053999;28;20448;-73
2023/07/10 03:25:54;;;;;;;17.23;16.17;;;23.20;99.90;;;;;;5053950;28;20522;-75
2023/07/10 03:28:22;;;;;;;18.27;17.30;;;23.20;99.90;;;;;;5047714;28;20448;-75
2023/07/10 03:30:48;;;;;;;17.10;16.07;;;23.20;99.90;;;;;;5038543;28;20452;-75
2023/07/10 03:33:17;;;;;;;15.50;14.70;;;23.10;99.90;;;;;;5041748;28;20504;-75
2023/07/10 03:35:48;;;;;;;16.03;14.93;;;23.10;99.90;;;;;;5044496;28;20459;-75
2023/07/10 03:38:15;;;;;;;16.47;15.53;;;23.10;99.90;;;;;;5044283;28;20445;-74
2023/07/10 03:40:50;;;;;;;16.07;15.27;;;23.10;99.90;;;;;;5043720;28;20448;-72
2023/07/10 03:43:17;;;;;;;15.13;14.27;;;23.10;99.90;;;;;;5052063;28;20443;-71
2023/07/10 03:45:44;;;;;;;15.90;15.10;;;23.20;99.90;;;;;;5046577;28;20563;-72
2023/07/10 03:48:11;;;;;;;16.50;15.50;;;23.20;99.90;;;;;;5045639;28;21065;-72
2023/07/10 03:50:38;;;;;;;17.67;16.80;;;23.30;99.90;;;;;;5044045;28;20902;-72
2023/07/10 03:53:04;;;;;;;16.87;15.90;;;23.30;99.90;;;;;;5042418;28;20445;-72
2023/07/10 03:55:31;;;;;;;16.87;15.87;;;23.30;99.90;;;;;;5048836;28;20474;-72
2023/07/10 03:57:59;;;;;;;16.30;15.33;;;23.40;99.90;;;;;;5047747;28;20456;-72
2023/07/10 04:00:26;;;;;;;15.77;14.77;;;23.40;99.90;;;;;;5048076;28;20455;-72
2023/07/10 04:02:53;;;;;;;17.73;16.57;;;23.50;99.90;;;;;;5051720;28;20456;-72
2023/07/10 04:05:19;;;;;;;16.47;15.37;;;23.50;99.90;;;;;;5048167;28;20451;-72
2023/07/10 04:07:46;;;;;;;18.20;17.00;;;23.50;99.90;;;;;;5046051;28;20484;-72
2023/07/10 04:10:13;;;;;;;16.90;16.00;;;23.50;99.90;;;;;;5047977;28;20449;-72
2023/07/10 04:12:41;;;;;;;17.53;16.60;;;23.60;99.90;;;;;;5048551;28;20448;-72
2023/07/10 04:15:10;;;;;;;17.27;15.93;;;23.60;99.90;;;;;;5050371;28;20554;-75
2023/07/10 04:17:36;;;;;;;17.37;16.37;;;23.60;99.90;;;;;;5046630;28;20459;-76
2023/07/10 04:20:04;;;;;;;18.00;17.00;;;23.60;99.90;;;;;;5037007;28;20456;-75
2023/07/10 04:22:30;;;;;;;18.77;17.30;;;23.60;99.90;;;;;;5052575;28;20458;-76
2023/07/10 04:25:03;;;;;;;16.53;15.67;;;23.60;99.90;;;;;;5049622;28;20457;-76
2023/07/10 04:27:30;;;;;;;17.07;15.93;;;23.50;99.90;;;;;;5032862;28;20461;-76
2023/07/10 04:29:57;;;;;;;18.17;16.70;;;23.50;99.90;;;;;;5032713;28;20480;-74
2023/07/10 04:32:25;;;;;;;16.23;15.43;;;23.50;99.90;;;;;;5033104;28;20453;-74
2023/07/10 04:34:52;;;;;;;16.63;15.63;;;23.60;99.90;;;;;;5032479;28;20575;-74
2023/07/10 04:37:19;;;;;;;15.93;15.03;;;23.60;99.90;;;;;;5038741;28;20467;-74
2023/07/10 04:39:45;;;;;;;15.90;15.00;;;23.60;99.90;;;;;;5037659;28;20456;-75
2023/07/10 04:42:12;;;;;;;16.00;15.10;;;23.70;99.90;;;;;;5034801;28;20460;-73
2023/07/10 04:44:39;;;;;;;16.23;15.43;;;23.70;99.90;;;;;;5043744;28;20452;-73
2023/07/10 04:47:06;;;;;;;17.57;16.37;;;23.60;99.90;;;;;;5032759;28;20449;-74
2023/07/10 04:49:34;;;;;;;17.30;16.30;;;23.70;99.90;;;;;;5040981;28;20452;-72
2023/07/10 04:52:01;;;;;;;16.20;15.30;;;23.70;99.90;;;;;;5037462;28;20481;-74
2023/07/10 04:54:27;;;;;;;19.10;17.87;;;23.80;99.90;;;;;;5041021;28;20507;-75
2023/07/10 04:56:54;;;;;;;19.03;17.70;;;23.90;99.90;;;;;;5043675;28;20443;-74
2023/07/10 04:59:21;;;;;;;18.50;17.50;;;24.00;99.90;;;;;;5039218;28;20930;-74
2023/07/10 05:01:47;;;;;;;18.77;17.63;;;24.10;99.90;;;;;;5033501;28;20916;-73
2023/07/10 05:04:14;;;;;;;17.60;16.50;;;23.90;99.90;;;;;;5040819;28;20440;-75
2023/07/10 05:06:42;;;;;;;18.77;17.77;;;23.80;99.90;;;;;;5043364;28;20480;-75
2023/07/10 05:09:09;;;;;;;17.23;16.13;;;23.70;99.90;;;;;;5038752;28;20448;-76
2023/07/10 05:11:36;;;;;;;16.83;15.83;;;23.70;99.90;;;;;;5038710;28;20452;-74
2023/07/10 05:14:02;;;;;;;16.93;15.83;;;23.80;99.90;;;;;;5040969;28;20531;-77
2023/07/10 05:16:30;;;;;;;15.43;14.63;;;24.10;99.90;;;;;;5043217;28;20463;-75
2023/07/10 05:18:57;;;;;;;15.70;14.90;;;24.50;99.90;;;;;;5037893;28;20733;-75
2023/07/10 05:21:24;;;;;;;16.50;15.30;;;24.90;99.90;;;;;;5039477;28;20467;-75
2023/07/10 05:23:52;;;;;;;16.47;15.57;;;25.00;99.90;;;;;;5040875;28;20453;-75
2023/07/10 05:26:20;;;;;;;14.77;14.00;;;24.90;99.90;;;;;;5043245;28;20456;-73
2023/07/10 05:28:47;;;;;;;17.87;16.93;;;24.80;99.90;;;;;;5037170;28;20487;-74
2023/07/10 05:31:14;;;;;;;16.33;15.57;;;24.80;99.90;;;;;;5039834;28;20445;-75
2023/07/10 05:33:41;;;;;;;16.37;15.47;;;24.90;99.90;;;;;;5040224;28;20488;-74
2023/07/10 05:36:10;;;;;;;16.50;15.50;;;25.00;99.90;;;;;;5042750;28;20598;-73
2023/07/10 05:38:37;;;;;;;15.70;14.97;;;25.60;99.90;;;;;;5036458;28;20460;-74
2023/07/10 05:41:05;;;;;;;17.30;16.10;;;26.40;99.90;;;;;;5040366;28;20468;-74
2023/07/10 05:43:34;;;;;;;16.40;15.37;;;27.40;99.00;;;;;;5040414;28;20457;-76
2023/07/10 05:46:08;;;;;;;18.93;17.77;;;28.40;96.40;;;;;;5042752;28;20467;-76
2023/07/10 05:48:35;;;;;;;17.60;16.60;;;29.30;94.50;;;;;;5031428;28;20481;-76
2023/07/10 05:51:02;;;;;;;17.70;16.40;;;30.10;92.80;;;;;;5033426;28;20457;-76
2023/07/10 05:53:28;;;;;;;16.47;15.47;;;30.40;91.70;;;;;;5046420;28;20816;-75
2023/07/10 05:55:57;;;;;;;16.30;15.40;;;29.90;91.20;;;;;;5051071;28;20826;-73
2023/07/10 05:58:27;;;;;;;15.90;14.90;;;28.90;92.60;;;;;;5032425;28;20476;-73
2023/07/10 06:00:56;;;;;;;18.20;17.10;;;27.80;94.50;;;;;;5031136;28;20445;-74
2023/07/10 06:03:24;;;;;;;18.33;17.27;;;27.10;95.90;;;;;;5025870;28;20531;-74
2023/07/10 06:05:55;;;;;;;16.20;15.00;;;26.80;97.20;;;;;;5031122;28;20452;-74
2023/07/10 06:08:22;;;;;;;16.23;15.30;;;26.90;97.00;;;;;;5030889;28;20485;-75
2023/07/10 06:10:49;;;;;;;15.80;15.00;;;27.30;96.30;;;;;;5031131;28;20445;-74
2023/07/10 06:13:16;;;;;;;17.80;16.70;;;27.90;95.50;;;;;;5030814;28;20796;-73
2023/07/10 06:15:46;;;;;;;16.73;15.83;;;28.20;94.80;;;;;;5030846;28;20492;-73
2023/07/10 06:18:12;;;;;;;17.77;16.60;;;28.40;94.80;;;;;;5030942;28;20445;-74
2023/07/10 06:20:39;;;;;;;16.33;15.60;;;29.00;93.90;;;;;;5030876;28;20453;-75
2023/07/10 06:23:06;;;;;;;16.00;15.30;;;29.50;92.50;;;;;;5030646;28;20449;-76
2023/07/10 06:25:33;;;;;;;16.90;16.17;;;29.60;92.00;;;;;;5030411;28;20950;-75
2023/07/10 06:28:00;;;;;;;16.20;15.37;;;30.40;90.80;;;;;;5030918;28;20462;-75
2023/07/10 06:30:27;;;;;;;16.83;16.13;;;31.10;89.20;;;;;;5034619;28;20464;-75
2023/07/10 06:32:55;;;;;;;19.27;18.27;;;32.20;85.10;;;;;;5041375;28;20451;-76
2023/07/10 06:35:21;;;;;;;18.10;17.20;;;33.30;80.40;;;;;;5042705;28;20484;-76
2023/07/10 06:37:48;;;;;;;18.90;17.93;;;33.90;76.70;;;;;;5030868;28;20461;-76
2023/07/10 06:40:16;;;;;;;18.73;17.63;;;34.00;75.30;;;;;;5030665;28;20449;-74
2023/07/10 06:42:43;;;;;;;18.40;17.40;;;34.20;74.30;;;;;;5030620;28;20449;-75
2023/07/10 06:45:11;;;;;;;18.33;16.97;;;33.80;74.50;;;;;;5040765;28;20463;-75
2023/07/10 06:47:41;;;;;;;19.20;18.20;;;33.50;75.20;;;;;;5034988;28;20456;-75
2023/07/10 06:50:10;;;;;;;17.80;16.90;;;32.70;76.50;;;;;;5039119;28;20452;-75
2023/07/10 06:52:39;;;;;;;16.23;15.47;;;32.90;76.80;;;;;;5039319;28;20452;-74
2023/07/10 06:55:06;;;;;;;18.73;17.77;;;33.30;75.80;;;;;;5041764;28;20491;-75
2023/07/10 06:57:33;;;;;;;18.00;17.10;;;34.00;74.40;;;;;;5030617;28;20526;-75
2023/07/10 07:00:00;;;;;;;18.60;17.03;;;34.00;72.80;;;;;;5031696;28;20456;-76
2023/07/10 07:02:27;;;;;;;17.43;16.67;;;34.00;72.70;;;;;;5035401;28;20460;-75
2023/07/10 07:04:54;;;;;;;18.30;17.40;;;34.20;72.60;;;;;;5040086;28;20444;-75
2023/07/10 07:07:22;;;;;;;18.03;17.23;;;34.00;72.20;;;;;;5030763;28;20484;-73
2023/07/10 07:09:49;;;;;;;18.90;17.90;;;34.30;72.90;;;;;;5035158;28;20448;-86
2023/07/10 07:12:16;;;;;;;18.30;17.30;;;35.00;70.70;;;;;;5049331;28;20460;-84
2023/07/10 07:14:42;;;;;;;17.60;16.80;;;34.70;70.20;;;;;;5053472;28;20515;-83
2023/07/10 07:17:09;;;;;;;17.20;16.40;;;34.90;69.80;;;;;;5053481;28;20807;-84
2023/07/10 07:19:36;;;;;;;18.30;17.00;;;34.80;69.70;;;;;;5046627;28;20456;-81
2023/07/10 07:22:03;;;;;;;17.90;17.07;;;34.50;69.70;;;;;;5046612;28;20460;-84
2023/07/10 07:24:31;;;;;;;18.10;16.97;;;34.30;70.60;;;;;;5036940;28;20444;-85
2023/07/10 07:26:59;;;;;;;18.43;17.57;;;34.40;70.90;;;;;;5049161;28;20452;-83
2023/07/10 07:29:28;;;;;;;17.10;16.40;;;34.50;70.10;;;;;;5030943;28;21028;-83
2023/07/10 07:31:55;;;;;;;18.83;17.43;;;34.20;71.10;;;;;;5037344;28;20456;-83
2023/07/10 07:34:22;;;;;;;17.00;16.20;;;33.90;72.00;;;;;;5050379;28;20484;-83
2023/07/10 07:36:50;;;;;;;18.40;17.60;;;33.80;72.60;;;;;;5054397;28;20470;-83
2023/07/10 07:39:17;;;;;;;17.10;16.13;;;33.70;72.90;;;;;;5058118;28;20448;-84
2023/07/10 07:41:45;;;;;;;18.13;16.93;;;33.50;74.00;;;;;;5058551;28;20460;-83
2023/07/10 07:44:12;;;;;;;18.53;17.53;;;33.80;73.70;;;;;;5058695;28;20456;-83
2023/07/10 07:46:39;;;;;;;18.50;17.30;;;34.70;72.10;;;;;;5059924;28;20459;-85
2023/07/10 07:49:06;;;;;;;18.70;17.80;;;35.70;69.20;;;;;;5058801;28;20448;-86
2023/07/10 07:51:32;;;;;;;18.50;17.63;;;36.50;67.20;;;;;;5060136;28;20475;-80
2023/07/10 07:54:03;;;;;;;18.33;17.40;;;36.70;65.20;;;;;;5058073;28;20563;-84
2023/07/10 07:56:30;;;;;;;17.60;16.80;;;36.40;65.40;;;;;;5048459;28;20486;-83
2023/07/10 07:58:58;;;;;;;18.10;16.43;;;36.40;65.40;;;;;;5042860;28;20452;-83
2023/07/10 08:01:25;;;;;;;18.53;17.83;;;36.40;64.60;;;;;;5043812;28;20453;-84
2023/07/10 08:03:52;;;;;;;16.23;15.40;;;35.80;66.00;;;;;;5051053;28;20455;-84
2023/07/10 08:06:20;;;;;;;16.90;16.20;;;36.40;65.50;;;;;;5046437;28;20449;-87
2023/07/10 08:08:47;;;;;;;15.77;15.20;;;36.90;63.20;;;;;;5043651;28;20538;-87
2023/07/10 08:11:13;;;;;;;19.30;18.30;;;36.90;63.60;;;;;;5047971;28;20482;-87
2023/07/10 08:13:40;;;;;;;18.60;17.90;;;37.50;62.20;;;;;;5045855;28;20444;-86
2023/07/10 08:16:08;;;;;;;18.00;17.20;;;37.80;61.60;;;;;;5052964;28;20495;-86
2023/07/10 08:18:35;;;;;;;17.90;17.10;;;38.60;58.90;;;;;;5053735;28;20464;-87
2023/07/10 08:21:03;;;;;;;17.47;16.57;;;38.00;59.20;;;;;;5058301;28;20452;-88
2023/07/10 08:23:30;;;;;;;17.33;16.63;;;37.60;60.00;;;;;;5051280;28;20452;-87
2023/07/10 08:25:57;;;;;;;18.97;18.27;;;38.40;59.20;;;;;;5043972;28;20551;-86
2023/07/10 08:28:23;;;;;;;17.23;16.57;;;38.40;58.80;;;;;;5036705;28;20935;-89
2023/07/10 08:30:50;;;;;;;17.13;16.53;;;38.60;58.10;;;;;;5040464;28;20457;-87
2023/07/10 08:33:19;;;;;;;17.33;16.43;;;37.80;57.60;;;;;;5040846;28;20547;-85
2023/07/10 08:35:53;;;;;;;17.93;17.23;;;37.20;59.80;;;;;;5034389;28;20485;-87
2023/07/10 08:38:20;;;;;;;17.23;16.53;;;37.30;60.40;;;;;;5035632;28;20448;-85
2023/07/10 08:40:50;;;;;;;17.23;16.40;;;37.90;59.90;;;;;;5038621;28;20449;-87
2023/07/10 08:43:29;;;;;;;16.60;16.00;;;38.60;58.40;;;;;;5054659;28;20456;-86
2023/07/10 08:46:03;;;;;;;17.43;16.63;;;38.80;57.40;;;;;;5053064;28;20573;-87
2023/07/10 08:48:36;;;;;;;16.23;15.33;;;38.30;57.70;;;;;;5057016;28;20451;-87
2023/07/10 08:51:13;;;;;;;18.17;17.37;;;37.80;58.80;;;;;;5053489;28;20469;-89
2023/07/10 08:53:48;;;;;;;16.20;15.60;;;38.40;59.00;;;;;;5043530;28;20453;-87
2023/07/10 08:56:28;;;;;;;17.83;16.93;;;38.50;58.60;;;;;;5042557;28;20896;-86
2023/07/10 08:58:59;;;;;;;17.70;16.90;;;38.50;57.90;;;;;;5031769;28;20457;-87
2023/07/10 09:01:31;;;;;;;17.37;16.67;;;38.00;59.50;;;;;;5034741;28;20453;-87
2023/07/10 09:04:01;;;;;;;17.17;16.17;;;37.90;59.80;;;;;;5034839;28;20471;-86
2023/07/10 09:06:38;;;;;;;17.30;16.47;;;38.00;59.20;;;;;;5033758;28;20448;-87
2023/07/10 09:09:15;;;;;;;17.67;16.80;;;37.70;59.50;;;;;;5041341;28;21038;-88
2023/07/10 09:11:42;;;;;;;16.80;16.10;;;37.90;60.20;;;;;;5039327;28;20981;-86
2023/07/10 09:14:23;;;;;;;19.47;18.53;;;38.10;59.80;;;;;;5041760;28;20456;-85
2023/07/10 09:16:53;;;;;;;17.93;17.13;;;38.90;58.10;;;;;;5041507;28;21212;-86
2023/07/10 09:19:22;;;;;;;17.00;16.30;;;38.80;58.20;;;;;;5032979;28;20982;-85
2023/07/10 09:21:49;;;;;;;18.60;17.87;;;39.60;57.30;;;;;;5041083;28;20452;-87
2023/07/10 09:24:19;;;;;;;19.67;18.47;;;40.00;56.80;;;;;;5040368;28;20493;-88
2023/07/10 09:26:46;;;;;;;19.70;18.80;;;38.90;58.60;;;;;;5041449;28;20541;-88
2023/07/10 09:29:30;;;;;;;17.40;16.80;;;38.00;60.20;;;;;;5037849;28;20455;-87
2023/07/10 09:32:03;;;;;;;17.77;16.80;;;37.90;61.00;;;;;;5036304;28;20623;-88
2023/07/10 09:34:34;;;;;;;18.27;17.47;;;38.60;59.20;;;;;;5037820;28;20449;-88
2023/07/10 09:37:03;;;;;;;17.70;16.90;;;38.60;59.90;;;;;;5041609;28;20460;-86
2023/07/10 09:39:32;;;;;;;16.80;16.10;;;38.70;59.00;;;;;;5041797;28;20448;-88
2023/07/10 09:42:00;;;;;;;18.00;17.20;;;37.40;60.10;;;;;;5038199;28;20871;-86
2023/07/10 09:44:34;;;;;;;17.60;16.80;;;37.00;61.20;;;;;;5035854;28;20706;-87
2023/07/10 09:47:09;;;;;;;18.67;17.87;;;36.50;63.20;;;;;;5039808;28;20452;-88
2023/07/10 09:49:46;;;;;;;18.57;17.70;;;36.60;64.50;;;;;;5038903;28;20457;-89
2023/07/10 09:52:20;;;;;;;17.67;16.97;;;36.80;63.80;;;;;;5036301;28;20858;-87
2023/07/10 09:54:47;;;;;;;18.80;17.80;;;37.70;61.60;;;;;;5041459;28;20465;-88
2023/07/10 09:57:16;;;;;;;20.53;19.53;;;38.00;62.50;;;;;;5040175;28;20539;-86
2023/07/10 09:59:49;;;;;;;16.87;16.07;;;38.00;61.70;;;;;;5043237;28;20452;-88
2023/07/10 10:02:20;;;;;;;16.33;15.63;;;38.00;61.20;;;;;;5041321;28;20448;-88
2023/07/10 10:04:54;;;;;;;17.63;16.83;;;38.20;61.10;;;;;;5043701;28;20460;-90
2023/07/10 10:07:22;;;;;;;17.73;16.93;;;38.90;58.90;;;;;;5044958;28;20477;-89
2023/07/10 10:10:16;;;;;;;19.60;18.40;;;38.40;58.40;;;;;;5037627;28;20453;-88
2023/07/10 10:12:43;;;;;;;17.23;16.53;;;38.00;59.80;;;;;;5040665;28;20441;-88
2023/07/10 10:15:20;;;;;;;18.37;17.37;;;37.10;61.00;;;;;;5050072;28;20487;-87
2023/07/10 10:17:49;;;;;;;16.73;16.03;;;37.70;60.00;;;;;;5054095;28;20794;-86
2023/07/10 10:20:24;;;;;;;15.60;14.90;;;38.60;59.20;;;;;;5053101;28;20455;-86
2023/07/10 10:22:51;;;;;;;17.33;16.63;;;39.30;57.30;;;;;;5058847;28;20452;-88
2023/07/10 10:25:20;;;;;;;17.60;16.90;;;40.00;56.60;;;;;;5053391;28;20448;-86
2023/07/10 10:27:53;;;;;;;18.33;17.53;;;40.70;55.20;;;;;;5052941;28;20443;-87
2023/07/10 10:30:34;;;;;;;19.27;18.40;;;39.40;55.40;;;;;;5052518;28;20451;-95
2023/07/10 10:33:15;;;;;;;18.07;17.30;;;39.00;56.40;;;;;;5052703;28;20447;-86
2023/07/10 10:35:55;;;;;;;18.10;17.30;;;39.30;56.40;;;;;;5051997;28;20537;-87
2023/07/10 10:38:48;;;;;;;18.90;17.90;;;39.80;55.50;;;;;;5051460;28;20444;-86
2023/07/10 10:41:38;;;;;;;18.90;17.90;;;39.70;55.70;;;;;;5048743;28;20459;-86
2023/07/10 10:44:11;;;;;;;17.97;17.07;;;40.60;53.70;;;;;;5050806;28;20448;-85
2023/07/10 10:46:56;;;;;;;18.90;18.10;;;41.20;53.20;;;;;;5050831;28;20923;-86
2023/07/10 10:49:52;;;;;;;19.47;18.57;;;40.60;54.20;;;;;;5050465;28;20848;-87
2023/07/10 10:52:27;;;;;;;19.17;18.00;;;40.90;53.40;;;;;;5050063;28;20451;-86
2023/07/10 10:55:05;;;;;;;20.83;19.93;;;41.20;53.10;;;;;;5050622;28;20458;-86
2023/07/10 10:57:45;;;;;;;19.10;18.30;;;40.90;52.70;;;;;;5050620;28;20929;-86
2023/07/10 11:00:28;;;;;;;19.43;18.63;;;41.70;51.60;;;;;;5051970;28;20471;-85
2023/07/10 11:03:08;;;;;;;18.87;17.60;;;41.70;51.10;;;;;;5052889;28;20474;-86
2023/07/10 11:05:40;;;;;;;18.37;17.57;;;40.80;52.00;;;;;;5052391;28;20448;-85
2023/07/10 11:08:14;;;;;;;18.70;17.90;;;40.30;52.90;;;;;;5050841;28;20486;-86
2023/07/10 11:10:42;;;;;;;18.63;17.83;;;39.60;54.10;;;;;;5053511;28;20597;-85
2023/07/10 11:13:19;;;;;;;18.10;17.30;;;38.80;55.50;;;;;;5055626;28;20958;-85
2023/07/10 11:15:46;;;;;;;18.60;17.70;;;39.10;55.00;;;;;;5055008;28;20550;-86
2023/07/10 11:18:15;;;;;;;18.67;17.60;;;39.30;54.90;;;;;;5055950;28;20474;-84
2023/07/10 11:20:44;;;;;;;19.43;18.60;;;39.40;54.30;;;;;;5055749;28;20844;-85
2023/07/10 11:23:32;;;;;;;18.60;17.90;;;39.10;54.80;;;;;;5055734;28;20451;-86
2023/07/10 11:26:01;;;;;;;18.20;16.97;;;38.90;55.30;;;;;;5056570;28;20474;-85
2023/07/10 11:28:31;;;;;;;19.97;19.03;;;39.30;54.50;;;;;;5055187;28;20476;-85
2023/07/10 11:31:18;;;;;;;18.60;17.80;;;38.70;54.60;;;;;;5057282;28;20473;-86
2023/07/10 11:33:50;;;;;;;18.27;17.57;;;39.10;55.00;;;;;;5057603;28;20452;-83
2023/07/10 11:36:19;;;;;;;18.00;17.00;;;38.50;55.20;;;;;;5058346;28;20833;-85
2023/07/10 11:38:57;;;;;;;19.07;17.90;;;38.30;55.70;;;;;;5056410;28;20807;-87
2023/07/10 11:41:27;;;;;;;18.80;17.90;;;38.00;55.70;;;;;;5055545;28;20810;-84
2023/07/10 11:44:11;;;;;;;18.07;17.27;;;38.40;55.30;;;;;;5055035;28;20451;-85
2023/07/10 11:46:54;;;;;;;18.07;17.27;;;38.90;54.20;;;;;;5055274;28;20454;-85
2023/07/10 11:49:21;;;;;;;17.83;17.00;;;38.60;53.80;;;;;;5058013;28;20818;-83
2023/07/10 11:52:25;;;;;;;18.47;17.63;;;37.40;55.70;;;;;;5061784;28;20791;-83
2023/07/10 11:55:07;;;;;;;17.97;17.20;;;37.50;55.90;;;;;;5058684;28;20497;-83
2023/07/10 11:57:35;;;;;;;17.30;16.60;;;37.80;55.70;;;;;;5055419;28;20486;-84
2023/07/10 12:00:05;;;;;;;17.93;17.23;;;37.90;55.00;;;;;;5055104;28;20448;-84
2023/07/10 12:02:37;;;;;;;17.67;16.87;;;38.10;54.50;;;;;;5055543;28;20456;-84
2023/07/10 12:05:12;;;;;;;17.33;16.60;;;38.10;54.00;;;;;;5054991;28;20455;-83
2023/07/10 12:07:53;;;;;;;18.87;17.80;;;38.40;53.10;;;;;;5052101;28;20486;-83
2023/07/10 12:10:22;;;;;;;18.50;17.70;;;38.70;52.00;;;;;;5054972;28;20456;-88
2023/07/10 12:12:50;;;;;;;18.20;17.40;;;38.20;51.80;;;;;;5055125;28;20452;-86
2023/07/10 12:15:17;;;;;;;16.80;16.10;;;38.30;51.50;;;;;;5042948;28;20448;-88
2023/07/10 12:17:44;;;;;;;17.57;16.50;;;38.40;50.80;;;;;;5040242;28;20991;-87
2023/07/10 12:20:27;;;;;;;16.20;15.60;;;38.70;51.00;;;;;;5041859;28;20486;-87
2023/07/10 12:22:56;;;;;;;18.77;17.87;;;38.40;50.00;;;;;;5037144;28;20460;-88
2023/07/10 12:25:24;;;;;;;18.00;17.13;;;38.60;50.00;;;;;;5048010;28;20536;-88
2023/07/10 12:27:51;;;;;;;17.20;16.40;;;39.10;48.80;;;;;;5045006;28;20464;-88
2023/07/10 12:30:21;;;;;;;16.90;16.30;;;39.90;47.80;;;;;;5042078;28;20455;-88
2023/07/10 12:32:53;;;;;;;17.83;17.13;;;40.50;45.40;;;;;;5033758;28;20448;-89
2023/07/10 12:35:32;;;;;;;18.20;17.43;;;40.30;44.80;;;;;;5042241;28;20474;-89
2023/07/10 12:38:01;;;;;;;17.33;16.63;;;40.10;45.10;;;;;;5037307;28;20444;-88
2023/07/10 12:40:30;;;;;;;18.50;17.70;;;40.90;43.70;;;;;;5041747;28;21005;-89